FYML

Details ICAO FYML
Name MARIENTAL
Region Namibia
Timezone Africa/Windhoek (UTC+2.0)
Plans Departing 0
Arriving 0
Stats Elevation 3,650 ft / 1,113 m (AMSL)
Location -24.604130° 17.922786°
Runways 2
Magnetic Variation 14.441° W
Sunrise 2017-12-16 03:55:41 UTC / 2017-12-16 05:55:41 Local
Sunset 2017-12-16 17:34:55 UTC / 2017-12-16 19:34:55 Local
Advertisement - Login to hide

Runways

ID Width Length Bearing (true) Bearing (mag) Surface Threshold Offset Overrun Length
01 82 ft / 25 m 6,586 ft / 2,007 m 349.29° 3.73° Asphalt 0 ft / 0 m 0 ft / 0 m
12 98 ft / 30 m 4,831 ft / 1,472 m 98.51° 112.95° Gravel 0 ft / 0 m 0 ft / 0 m
19 82 ft / 25 m 6,586 ft / 2,007 m 169.29° 183.73° Asphalt 0 ft / 0 m 0 ft / 0 m
30 98 ft / 30 m 4,831 ft / 1,472 m 278.50° 292.94° Gravel 0 ft / 0 m 0 ft / 0 m

Map

Weather


0- 5 10 15 20 25 30 35+ Temperature / ° C

Clouds and Precipitation
Forecast for 2017-12-16 06:00 UTC. Updated an hour ago

Ground ~20,000 ft ~40,000 ft Winds

METAR

FYML 160200Z AUTO 00000KT //// // ////// 23/16 Q1017

TAF

Not found

Frequencies

Unicom 124.80 MHz CTAF
Warning: Do not use this data for real-world aviation or navigation. No guarantee of current accuracy is given.